sensor_id;sensor_type;location;lat;lon;timestamp;P1;durP1;ratioP1;P2;durP2;ratioP2
10333;SDS011;5212;47.892;16.406;2022-09-01T00:33:53;5.03;;;4.63;;
10333;SDS011;5212;47.892;16.406;2022-09-01T01:20:20;6.30;;;5.70;;
10333;SDS011;5212;47.892;16.406;2022-09-01T01:23:12;7.23;;;5.50;;
10333;SDS011;5212;47.892;16.406;2022-09-01T01:25:45;4.87;;;4.47;;
10333;SDS011;5212;47.892;16.406;2022-09-01T02:28:57;6.40;;;5.80;;
10333;SDS011;5212;47.892;16.406;2022-09-01T02:31:27;6.10;;;5.60;;
10333;SDS011;5212;47.892;16.406;2022-09-01T02:33:54;6.23;;;5.63;;
10333;SDS011;5212;47.892;16.406;2022-09-01T02:36:21;5.50;;;5.00;;
10333;SDS011;5212;47.892;16.406;2022-09-01T02:38:49;6.43;;;5.17;;
10333;SDS011;5212;47.892;16.406;2022-09-01T02:41:16;5.80;;;5.20;;
10333;SDS011;5212;47.892;16.406;2022-09-01T02:43:47;6.33;;;4.60;;
10333;SDS011;5212;47.892;16.406;2022-09-01T02:59:12;5.50;;;5.00;;
10333;SDS011;5212;47.892;16.406;2022-09-01T03:01:39;6.83;;;4.67;;
10333;SDS011;5212;47.892;16.406;2022-09-01T03:04:11;5.00;;;4.50;;
10333;SDS011;5212;47.892;16.406;2022-09-01T03:06:39;4.73;;;4.27;;
10333;SDS011;5212;47.892;16.406;2022-09-01T03:09:07;5.23;;;4.73;;
10333;SDS011;5212;47.892;16.406;2022-09-01T03:11:36;5.30;;;4.80;;
10333;SDS011;5212;47.892;16.406;2022-09-01T03:14:05;5.67;;;4.80;;
10333;SDS011;5212;47.892;16.406;2022-09-01T03:16:34;5.43;;;4.80;;
10333;SDS011;5212;47.892;16.406;2022-09-01T03:19:02;5.40;;;4.90;;
10333;SDS011;5212;47.892;16.406;2022-09-01T03:21:31;5.60;;;5.10;;
10333;SDS011;5212;47.892;16.406;2022-09-01T03:23:58;5.20;;;4.70;;
10333;SDS011;5212;47.892;16.406;2022-09-01T03:26:27;5.67;;;5.27;;
10333;SDS011;5212;47.892;16.406;2022-09-01T03:28:55;5.23;;;4.80;;
10333;SDS011;5212;47.892;16.406;2022-09-01T03:31:23;5.53;;;4.90;;
10333;SDS011;5212;47.892;16.406;2022-09-01T03:33:53;5.20;;;4.67;;
10333;SDS011;5212;47.892;16.406;2022-09-01T03:36:21;5.17;;;4.67;;
10333;SDS011;5212;47.892;16.406;2022-09-01T03:59:32;7.87;;;4.70;;
10333;SDS011;5212;47.892;16.406;2022-09-01T04:01:59;7.17;;;4.77;;
10333;SDS011;5212;47.892;16.406;2022-09-01T04:04:27;4.70;;;4.30;;
10333;SDS011;5212;47.892;16.406;2022-09-01T04:06:55;4.47;;;4.07;;
10333;SDS011;5212;47.892;16.406;2022-09-01T04:09:23;5.77;;;4.43;;
10333;SDS011;5212;47.892;16.406;2022-09-01T04:11:50;5.10;;;4.60;;
10333;SDS011;5212;47.892;16.406;2022-09-01T04:14:18;7.13;;;4.90;;
10333;SDS011;5212;47.892;16.406;2022-09-01T04:16:46;6.07;;;4.30;;
10333;SDS011;5212;47.892;16.406;2022-09-01T04:19:32;4.10;;;3.70;;
10333;SDS011;5212;47.892;16.406;2022-09-01T04:22:01;4.40;;;4.00;;
10333;SDS011;5212;47.892;16.406;2022-09-01T06:25:28;3.07;;;2.50;;
10333;SDS011;5212;47.892;16.406;2022-09-01T06:53:02;2.50;;;2.30;;
10333;SDS011;5212;47.892;16.406;2022-09-01T06:55:33;2.90;;;2.50;;
10333;SDS011;5212;47.892;16.406;2022-09-01T06:58:02;4.47;;;2.50;;
10333;SDS011;5212;47.892;16.406;2022-09-01T07:11:07;3.67;;;2.30;;
10333;SDS011;5212;47.892;16.406;2022-09-01T07:29:11;3.67;;;2.50;;
10333;SDS011;5212;47.892;16.406;2022-09-01T07:31:40;6.90;;;2.80;;
10333;SDS011;5212;47.892;16.406;2022-09-01T07:36:43;3.50;;;2.50;;
10333;SDS011;5212;47.892;16.406;2022-09-01T07:39:11;4.60;;;2.40;;
10333;SDS011;5212;47.892;16.406;2022-09-01T07:41:39;4.37;;;2.37;;
10333;SDS011;5212;47.892;16.406;2022-09-01T07:44:07;3.70;;;1.90;;
10333;SDS011;5212;47.892;16.406;2022-09-01T07:46:39;2.93;;;2.30;;
10333;SDS011;5212;47.892;16.406;2022-09-01T07:49:07;3.33;;;2.33;;
10333;SDS011;5212;47.892;16.406;2022-09-01T07:51:34;4.00;;;2.20;;
10333;SDS011;5212;47.892;16.406;2022-09-01T07:54:01;5.47;;;2.13;;
10333;SDS011;5212;47.892;16.406;2022-09-01T07:56:28;2.57;;;2.10;;
10333;SDS011;5212;47.892;16.406;2022-09-01T08:01:31;2.87;;;2.03;;
10333;SDS011;5212;47.892;16.406;2022-09-01T08:06:29;2.70;;;2.20;;
10333;SDS011;5212;47.892;16.406;2022-09-01T08:08:57;2.83;;;2.20;;
10333;SDS011;5212;47.892;16.406;2022-09-01T08:11:26;3.80;;;2.27;;
10333;SDS011;5212;47.892;16.406;2022-09-01T08:13:54;4.47;;;2.23;;
10333;SDS011;5212;47.892;16.406;2022-09-01T08:16:23;3.23;;;2.23;;
10333;SDS011;5212;47.892;16.406;2022-09-01T08:21:18;2.80;;;2.10;;
10333;SDS011;5212;47.892;16.406;2022-09-01T08:23:49;3.00;;;1.97;;
10333;SDS011;5212;47.892;16.406;2022-09-01T08:26:17;2.10;;;1.83;;
10333;SDS011;5212;47.892;16.406;2022-09-01T08:37:11;4.60;;;2.07;;
10333;SDS011;5212;47.892;16.406;2022-09-01T08:39:40;2.57;;;2.03;;
10333;SDS011;5212;47.892;16.406;2022-09-01T08:42:10;2.27;;;1.90;;
10333;SDS011;5212;47.892;16.406;2022-09-01T08:44:43;2.70;;;1.80;;
10333;SDS011;5212;47.892;16.406;2022-09-01T08:47:20;3.63;;;1.70;;
10333;SDS011;5212;47.892;16.406;2022-09-01T08:49:47;3.30;;;1.70;;
10333;SDS011;5212;47.892;16.406;2022-09-01T08:52:17;2.83;;;1.80;;
10333;SDS011;5212;47.892;16.406;2022-09-01T08:54:49;1.50;;;1.40;;
10333;SDS011;5212;47.892;16.406;2022-09-01T08:57:19;2.87;;;1.70;;
10333;SDS011;5212;47.892;16.406;2022-09-01T08:59:47;1.90;;;1.43;;
10333;SDS011;5212;47.892;16.406;2022-09-01T09:02:19;2.80;;;1.70;;
10333;SDS011;5212;47.892;16.406;2022-09-01T09:05:04;2.27;;;1.57;;
10333;SDS011;5212;47.892;16.406;2022-09-01T09:07:40;1.73;;;1.40;;
10333;SDS011;5212;47.892;16.406;2022-09-01T09:10:22;3.27;;;1.73;;
10333;SDS011;5212;47.892;16.406;2022-09-01T09:12:55;4.77;;;1.67;;
10333;SDS011;5212;47.892;16.406;2022-09-01T09:15:31;2.70;;;1.40;;
10333;SDS011;5212;47.892;16.406;2022-09-01T09:18:07;1.83;;;1.37;;
10333;SDS011;5212;47.892;16.406;2022-09-01T09:20:39;2.10;;;1.50;;
10333;SDS011;5212;47.892;16.406;2022-09-01T09:23:10;2.27;;;1.57;;
10333;SDS011;5212;47.892;16.406;2022-09-01T09:30:48;2.97;;;1.50;;
10333;SDS011;5212;47.892;16.406;2022-09-01T09:38:44;1.67;;;1.30;;
10333;SDS011;5212;47.892;16.406;2022-09-01T09:41:15;2.80;;;1.23;;
10333;SDS011;5212;47.892;16.406;2022-09-01T09:43:44;1.47;;;1.30;;
10333;SDS011;5212;47.892;16.406;2022-09-01T09:46:22;1.80;;;1.30;;
10333;SDS011;5212;47.892;16.406;2022-09-01T09:49:05;2.07;;;1.30;;
10333;SDS011;5212;47.892;16.406;2022-09-01T09:51:35;1.80;;;1.30;;
10333;SDS011;5212;47.892;16.406;2022-09-01T09:59:22;1.67;;;1.20;;
10333;SDS011;5212;47.892;16.406;2022-09-01T10:01:56;2.73;;;1.40;;
10333;SDS011;5212;47.892;16.406;2022-09-01T10:12:05;1.77;;;1.10;;
10333;SDS011;5212;47.892;16.406;2022-09-01T10:17:11;1.57;;;1.33;;
10333;SDS011;5212;47.892;16.406;2022-09-01T10:22:15;1.83;;;1.27;;
10333;SDS011;5212;47.892;16.406;2022-09-01T10:24:41;1.97;;;1.23;;
10333;SDS011;5212;47.892;16.406;2022-09-01T10:27:12;1.40;;;1.20;;
10333;SDS011;5212;47.892;16.406;2022-09-01T10:29:43;2.20;;;1.50;;
10333;SDS011;5212;47.892;16.406;2022-09-01T10:47:47;1.77;;;1.30;;
10333;SDS011;5212;47.892;16.406;2022-09-01T11:06:01;1.97;;;1.30;;
10333;SDS011;5212;47.892;16.406;2022-09-01T11:27:07;2.37;;;1.43;;
10333;SDS011;5212;47.892;16.406;2022-09-01T11:32:09;1.93;;;1.23;;
10333;SDS011;5212;47.892;16.406;2022-09-01T11:34:39;2.87;;;1.20;;
10333;SDS011;5212;47.892;16.406;2022-09-01T11:37:09;1.20;;;1.10;;
10333;SDS011;5212;47.892;16.406;2022-09-01T11:39:39;1.70;;;1.30;;
10333;SDS011;5212;47.892;16.406;2022-09-01T11:42:17;1.27;;;1.10;;
10333;SDS011;5212;47.892;16.406;2022-09-01T11:44:47;1.60;;;1.03;;
10333;SDS011;5212;47.892;16.406;2022-09-01T11:47:17;1.10;;;1.00;;
10333;SDS011;5212;47.892;16.406;2022-09-01T11:49:47;1.57;;;1.13;;
10333;SDS011;5212;47.892;16.406;2022-09-01T11:57:26;4.17;;;1.63;;
10333;SDS011;5212;47.892;16.406;2022-09-01T12:02:23;1.47;;;1.10;;
10333;SDS011;5212;47.892;16.406;2022-09-01T12:07:50;1.67;;;1.20;;
10333;SDS011;5212;47.892;16.406;2022-09-01T12:10:18;1.70;;;1.30;;
10333;SDS011;5212;47.892;16.406;2022-09-01T12:12:58;1.27;;;1.10;;
10333;SDS011;5212;47.892;16.406;2022-09-01T12:15:26;3.13;;;1.10;;
10333;SDS011;5212;47.892;16.406;2022-09-01T12:18:03;2.70;;;1.20;;
10333;SDS011;5212;47.892;16.406;2022-09-01T12:20:35;4.33;;;1.23;;
10333;SDS011;5212;47.892;16.406;2022-09-01T12:23:14;1.37;;;1.10;;
10333;SDS011;5212;47.892;16.406;2022-09-01T12:25:43;1.60;;;1.20;;
10333;SDS011;5212;47.892;16.406;2022-09-01T12:28:12;2.30;;;1.30;;
10333;SDS011;5212;47.892;16.406;2022-09-01T12:30:40;2.80;;;1.40;;
10333;SDS011;5212;47.892;16.406;2022-09-01T12:33:09;1.90;;;1.23;;
10333;SDS011;5212;47.892;16.406;2022-09-01T12:35:38;3.30;;;1.27;;
10333;SDS011;5212;47.892;16.406;2022-09-01T12:38:23;2.73;;;1.10;;
10333;SDS011;5212;47.892;16.406;2022-09-01T12:40:51;1.33;;;1.20;;
10333;SDS011;5212;47.892;16.406;2022-09-01T12:46:13;2.77;;;1.40;;
10333;SDS011;5212;47.892;16.406;2022-09-01T12:49:14;2.50;;;1.20;;
10333;SDS011;5212;47.892;16.406;2022-09-01T12:51:42;2.83;;;1.20;;
10333;SDS011;5212;47.892;16.406;2022-09-01T12:54:09;1.73;;;1.03;;
10333;SDS011;5212;47.892;16.406;2022-09-01T12:56:36;1.93;;;1.20;;
10333;SDS011;5212;47.892;16.406;2022-09-01T12:59:08;2.53;;;1.20;;
10333;SDS011;5212;47.892;16.406;2022-09-01T13:01:38;1.60;;;1.23;;
10333;SDS011;5212;47.892;16.406;2022-09-01T13:04:13;2.13;;;1.00;;
10333;SDS011;5212;47.892;16.406;2022-09-01T13:06:48;2.83;;;1.40;;
10333;SDS011;5212;47.892;16.406;2022-09-01T13:09:21;1.83;;;1.27;;
10333;SDS011;5212;47.892;16.406;2022-09-01T13:11:49;1.10;;;1.00;;
10333;SDS011;5212;47.892;16.406;2022-09-01T13:14:17;2.60;;;1.17;;
10333;SDS011;5212;47.892;16.406;2022-09-01T14:08:16;1.10;;;1.00;;
10333;SDS011;5212;47.892;16.406;2022-09-01T14:10:45;1.43;;;1.00;;
10333;SDS011;5212;47.892;16.406;2022-09-01T14:13:15;1.10;;;1.00;;
10333;SDS011;5212;47.892;16.406;2022-09-01T14:15:42;1.80;;;1.07;;
10333;SDS011;5212;47.892;16.406;2022-09-01T14:18:11;2.30;;;1.00;;
10333;SDS011;5212;47.892;16.406;2022-09-01T14:20:40;1.87;;;1.07;;
10333;SDS011;5212;47.892;16.406;2022-09-01T14:25:36;2.65;;;1.05;;
10333;SDS011;5212;47.892;16.406;2022-09-01T14:28:03;1.23;;;1.03;;
10333;SDS011;5212;47.892;16.406;2022-09-01T14:30:31;1.67;;;1.20;;
10333;SDS011;5212;47.892;16.406;2022-09-01T14:32:59;1.90;;;1.00;;
10333;SDS011;5212;47.892;16.406;2022-09-01T14:35:26;1.73;;;1.17;;
10333;SDS011;5212;47.892;16.406;2022-09-01T14:37:57;1.73;;;1.20;;
10333;SDS011;5212;47.892;16.406;2022-09-01T14:40:25;1.57;;;1.00;;
10333;SDS011;5212;47.892;16.406;2022-09-01T14:42:54;1.30;;;1.10;;
10333;SDS011;5212;47.892;16.406;2022-09-01T14:45:22;1.30;;;1.00;;
10333;SDS011;5212;47.892;16.406;2022-09-01T14:47:52;1.40;;;1.00;;
10333;SDS011;5212;47.892;16.406;2022-09-01T14:52:48;2.07;;;1.27;;
10333;SDS011;5212;47.892;16.406;2022-09-01T14:55:16;1.57;;;1.00;;
10333;SDS011;5212;47.892;16.406;2022-09-01T14:57:44;1.80;;;0.97;;
10333;SDS011;5212;47.892;16.406;2022-09-01T15:00:13;3.10;;;1.20;;
10333;SDS011;5212;47.892;16.406;2022-09-01T15:02:41;1.37;;;1.03;;
10333;SDS011;5212;47.892;16.406;2022-09-01T15:05:09;1.33;;;1.00;;
10333;SDS011;5212;47.892;16.406;2022-09-01T15:07:37;2.83;;;1.10;;
10333;SDS011;5212;47.892;16.406;2022-09-01T15:10:05;1.17;;;1.00;;
10333;SDS011;5212;47.892;16.406;2022-09-01T15:12:32;5.20;;;1.27;;
10333;SDS011;5212;47.892;16.406;2022-09-01T15:20:39;2.63;;;1.30;;
10333;SDS011;5212;47.892;16.406;2022-09-01T15:23:14;3.17;;;1.03;;
10333;SDS011;5212;47.892;16.406;2022-09-01T15:25:41;2.23;;;1.20;;
10333;SDS011;5212;47.892;16.406;2022-09-01T15:28:09;1.30;;;1.20;;
10333;SDS011;5212;47.892;16.406;2022-09-01T15:30:37;2.17;;;1.30;;
10333;SDS011;5212;47.892;16.406;2022-09-01T15:33:06;3.03;;;1.10;;
10333;SDS011;5212;47.892;16.406;2022-09-01T15:35:35;1.10;;;1.00;;
10333;SDS011;5212;47.892;16.406;2022-09-01T15:38:02;1.83;;;1.30;;
10333;SDS011;5212;47.892;16.406;2022-09-01T15:40:31;1.30;;;0.83;;
10333;SDS011;5212;47.892;16.406;2022-09-01T15:42:58;1.33;;;1.07;;
10333;SDS011;5212;47.892;16.406;2022-09-01T15:45:25;2.20;;;1.00;;
10333;SDS011;5212;47.892;16.406;2022-09-01T15:47:53;1.57;;;1.00;;
10333;SDS011;5212;47.892;16.406;2022-09-01T15:50:21;1.63;;;1.10;;
10333;SDS011;5212;47.892;16.406;2022-09-01T15:52:52;1.33;;;0.90;;
10333;SDS011;5212;47.892;16.406;2022-09-01T15:55:22;1.67;;;1.00;;
10333;SDS011;5212;47.892;16.406;2022-09-01T15:57:50;1.93;;;1.00;;
10333;SDS011;5212;47.892;16.406;2022-09-01T16:02:53;1.30;;;0.90;;
10333;SDS011;5212;47.892;16.406;2022-09-01T16:05:23;1.63;;;0.93;;
10333;SDS011;5212;47.892;16.406;2022-09-01T16:07:52;1.10;;;0.90;;
10333;SDS011;5212;47.892;16.406;2022-09-01T16:47:42;2.10;;;1.13;;
10333;SDS011;5212;47.892;16.406;2022-09-01T16:52:57;1.23;;;0.87;;
10333;SDS011;5212;47.892;16.406;2022-09-01T17:05:47;1.37;;;1.00;;
10333;SDS011;5212;47.892;16.406;2022-09-01T17:08:20;1.50;;;1.10;;
10333;SDS011;5212;47.892;16.406;2022-09-01T17:10:51;1.30;;;1.03;;
10333;SDS011;5212;47.892;16.406;2022-09-01T17:13:22;2.30;;;0.90;;
10333;SDS011;5212;47.892;16.406;2022-09-01T17:15:53;1.23;;;0.90;;
10333;SDS011;5212;47.892;16.406;2022-09-01T17:18:33;2.83;;;1.20;;
10333;SDS011;5212;47.892;16.406;2022-09-01T17:21:08;1.30;;;1.10;;
10333;SDS011;5212;47.892;16.406;2022-09-01T17:23:39;1.23;;;0.93;;
10333;SDS011;5212;47.892;16.406;2022-09-01T17:26:14;1.20;;;1.00;;
10333;SDS011;5212;47.892;16.406;2022-09-01T17:28:46;1.07;;;0.97;;
10333;SDS011;5212;47.892;16.406;2022-09-01T17:31:19;1.60;;;1.00;;
10333;SDS011;5212;47.892;16.406;2022-09-01T17:33:57;1.53;;;1.00;;
10333;SDS011;5212;47.892;16.406;2022-09-01T17:36:36;1.33;;;1.00;;
10333;SDS011;5212;47.892;16.406;2022-09-01T17:39:07;1.20;;;0.90;;
10333;SDS011;5212;47.892;16.406;2022-09-01T17:41:38;1.10;;;0.90;;
10333;SDS011;5212;47.892;16.406;2022-09-01T17:44:10;1.07;;;0.90;;
10333;SDS011;5212;47.892;16.406;2022-09-01T17:46:44;3.10;;;1.00;;
10333;SDS011;5212;47.892;16.406;2022-09-01T17:49:14;1.00;;;0.90;;
10333;SDS011;5212;47.892;16.406;2022-09-01T18:02:16;0.83;;;0.70;;
10333;SDS011;5212;47.892;16.406;2022-09-01T18:04:56;1.57;;;0.90;;
10333;SDS011;5212;47.892;16.406;2022-09-01T18:07:34;1.10;;;0.90;;
10333;SDS011;5212;47.892;16.406;2022-09-01T18:10:10;1.23;;;1.03;;
10333;SDS011;5212;47.892;16.406;2022-09-01T18:41:21;1.87;;;1.20;;
10333;SDS011;5212;47.892;16.406;2022-09-01T18:46:42;1.53;;;1.30;;
10333;SDS011;5212;47.892;16.406;2022-09-01T19:05:52;1.93;;;1.07;;
10333;SDS011;5212;47.892;16.406;2022-09-01T19:13:42;2.10;;;1.40;;
10333;SDS011;5212;47.892;16.406;2022-09-01T19:16:16;1.60;;;1.37;;
10333;SDS011;5212;47.892;16.406;2022-09-01T19:37:13;3.05;;;1.30;;
